createdAt,value
2018-04-28T00:05:13.496Z,67.6
2018-04-28T00:10:07.734Z,68.1
2018-04-28T00:20:02.919Z,68.6
2018-04-28T00:25:08.662Z,69.2
2018-04-28T00:30:33.678Z,69.5
2018-04-28T00:35:15.989Z,71.6
2018-04-28T00:40:05.658Z,71.7
2018-04-28T00:45:02.776Z,71.6
2018-04-28T00:50:21.172Z,72.5
2018-04-28T00:55:33.227Z,72.9
2018-04-28T01:00:02.660Z,72.9
2018-04-28T01:05:03.107Z,73.4
2018-04-28T01:10:05.495Z,74.1
2018-04-28T01:25:05.455Z,75.1
2018-04-28T01:30:12.926Z,75.2
2018-04-28T01:35:25.994Z,75.3
2018-04-28T01:40:05.425Z,75.9
2018-04-28T01:45:28.490Z,76.3
2018-04-28T01:50:05.478Z,76.6
2018-04-28T01:55:10.823Z,76.8
2018-04-28T02:00:05.775Z,77.2
2018-04-28T02:05:08.649Z,77.8
2018-04-28T02:10:26.263Z,77.9
2018-04-28T02:15:07.632Z,78.3
2018-04-28T02:30:03.535Z,78.8
2018-04-28T02:35:05.484Z,79
2018-04-28T02:40:03.439Z,79
2018-04-28T02:50:03.235Z,79.1
2018-04-28T02:55:03.406Z,79.5
2018-04-28T03:00:05.317Z,79.6
2018-04-28T03:05:15.885Z,80
2018-04-28T03:10:10.353Z,80.1
2018-04-28T03:15:38.654Z,80.4
2018-04-28T03:20:08.179Z,80.6
2018-04-28T03:25:21.235Z,81
2018-04-28T03:30:05.152Z,81
2018-04-28T03:35:05.539Z,81.1
2018-04-28T03:40:36.229Z,81.4
2018-04-28T03:45:06.107Z,81.6
2018-04-28T03:50:06.141Z,81.8
2018-04-28T03:55:20.566Z,82.1
2018-04-28T04:00:38.316Z,82.3
2018-04-28T04:05:05.213Z,82.4
2018-04-28T04:15:16.014Z,82.6
2018-04-28T04:20:31.395Z,82.4
2018-04-28T04:25:25.529Z,82
2018-04-28T04:30:10.497Z,82.3
2018-04-28T04:35:08.411Z,82.3
2018-04-28T04:40:03.210Z,82.3
2018-04-28T04:45:08.616Z,83.1
2018-04-28T04:50:10.645Z,82.8
2018-04-28T04:55:08.445Z,82.4
2018-04-28T05:00:07.849Z,82.4
2018-04-28T05:05:10.791Z,82.4
2018-04-28T05:10:05.204Z,82.2
2018-04-28T05:15:18.305Z,81.7
2018-04-28T05:20:10.360Z,81.5
2018-04-28T05:25:26.043Z,80.9
2018-04-28T05:30:03.402Z,80.8
2018-04-28T05:45:17.969Z,79.2
2018-04-28T05:50:13.650Z,79
2018-04-28T06:00:08.221Z,79.1
2018-04-28T06:05:21.172Z,78.9
2018-04-28T06:10:23.290Z,78.6
2018-04-28T06:15:28.666Z,77.9
2018-04-28T06:20:08.405Z,75.8
2018-04-28T06:25:25.594Z,75.8
2018-04-28T06:40:05.567Z,74.5
2018-04-28T06:45:08.445Z,74.4
2018-04-28T06:50:13.299Z,73.4
2018-04-28T06:55:18.692Z,72.6
2018-04-28T07:00:08.460Z,72.4
2018-04-28T07:05:18.062Z,71.7
2018-04-28T07:15:31.037Z,70.2
2018-04-28T07:20:08.588Z,68.7
2018-04-28T07:25:05.452Z,68.1
2018-04-28T07:30:05.420Z,67.7
2018-04-28T07:35:05.846Z,66.1
2018-04-28T07:40:07.766Z,66
2018-04-28T07:45:15.862Z,65.2
2018-04-28T07:50:18.433Z,62.9
2018-04-28T07:55:07.805Z,60.7
2018-04-28T08:05:23.842Z,56.9
2018-04-28T08:10:02.702Z,56.9
2018-04-28T08:15:05.698Z,55.8
2018-04-28T08:20:05.767Z,55.6
2018-04-28T08:25:22.916Z,55.7
2018-04-28T08:35:18.691Z,54
2018-04-28T08:40:05.168Z,53.5
2018-04-28T08:45:03.078Z,53.4
2018-04-28T08:50:31.316Z,51.4
2018-04-28T09:00:10.730Z,49.9
2018-04-28T09:05:10.249Z,50.4
2018-04-28T09:10:03.125Z,50.4
2018-04-28T09:15:06.128Z,49.9
2018-04-28T09:30:03.259Z,46.8
2018-04-28T09:35:10.323Z,46.6
2018-04-28T09:40:10.826Z,46.7
2018-04-28T09:45:25.484Z,47.8
2018-04-28T09:50:07.996Z,48.1
2018-04-28T10:00:10.450Z,45.7
2018-04-28T10:05:15.830Z,46.2
2018-04-28T10:10:25.509Z,45.3
2018-04-28T10:15:07.952Z,44
2018-04-28T10:20:06.068Z,45.2
2018-04-28T10:25:23.520Z,45.2
2018-04-28T10:30:15.670Z,44.9
2018-04-28T10:35:21.041Z,44.2
2018-04-28T10:45:18.539Z,45.6
2018-04-28T10:50:08.048Z,46.6
2018-04-28T10:55:16.074Z,45.9
2018-04-28T11:00:23.779Z,45.7
2018-04-28T11:05:10.519Z,46.6
2018-04-28T11:10:15.317Z,45.2
2018-04-28T11:15:10.755Z,44.5
2018-04-28T11:20:21.035Z,43.9
2018-04-28T11:25:28.287Z,43.8
2018-04-28T11:30:07.902Z,43.1
2018-04-28T11:35:08.297Z,42.6
2018-04-28T11:40:35.500Z,41.8
2018-04-28T11:45:08.088Z,37.6
2018-04-28T11:55:20.654Z,36.7
2018-04-28T12:00:10.781Z,36
2018-04-28T12:05:02.627Z,36
2018-04-28T12:10:07.667Z,39.9
2018-04-28T12:15:25.928Z,40.6
2018-04-28T12:20:16.187Z,38.5
2018-04-28T12:25:15.728Z,38
2018-04-28T12:30:06.064Z,38.9
2018-04-28T12:35:17.978Z,38.5
2018-04-28T12:40:20.721Z,38.1
2018-04-28T12:45:06.079Z,35.2
2018-04-28T12:50:35.604Z,35.3
2018-04-28T12:55:08.295Z,36.7
2018-04-28T13:00:07.907Z,37.3
2018-04-28T13:05:16.055Z,36.4
2018-04-28T13:10:08.093Z,34
2018-04-28T13:15:10.285Z,32.8
2018-04-28T13:20:20.597Z,30
2018-04-28T13:25:13.517Z,28.4
2018-04-28T13:30:08.151Z,25.5
2018-04-28T13:40:03.410Z,24.5
2018-04-28T13:45:18.144Z,22.8
2018-04-28T13:50:10.520Z,22.5
2018-04-28T13:55:21.286Z,21.2
2018-04-28T14:00:10.445Z,20.8
2018-04-28T14:05:11.145Z,22
2018-04-28T14:10:18.390Z,21.5
2018-04-28T14:20:05.870Z,20.6
2018-04-28T14:25:05.497Z,21.1
2018-04-28T14:30:10.871Z,22
2018-04-28T14:35:12.844Z,22.2
2018-04-28T14:40:05.428Z,24.1
2018-04-28T14:45:38.938Z,23.5
2018-04-28T14:50:07.804Z,23
2018-04-28T14:55:10.833Z,23.2
2018-04-28T15:00:10.962Z,23.2
2018-04-28T15:05:08.093Z,24.1
2018-04-28T15:10:33.488Z,24.2
2018-04-28T15:20:03.540Z,24.7
2018-04-28T15:25:10.652Z,25.1
2018-04-28T15:30:05.800Z,25.3
2018-04-28T15:35:12.929Z,23
2018-04-28T15:40:02.953Z,23
2018-04-28T15:45:08.576Z,21.6
2018-04-28T15:50:03.097Z,21.6
2018-04-28T16:00:23.621Z,21
2018-04-28T16:05:03.175Z,21
2018-04-28T16:10:25.903Z,20.7
2018-04-28T16:15:08.482Z,21.3
2018-04-28T16:20:18.268Z,21.6
2018-04-28T16:25:06.127Z,21.8
2018-04-28T16:30:02.623Z,21.7
2018-04-28T16:35:10.822Z,22.8
2018-04-28T16:40:02.795Z,22.8
2018-04-28T16:45:03.484Z,23.5
2018-04-28T16:55:05.808Z,24.8
2018-04-28T17:00:05.889Z,24.8
2018-04-28T17:05:05.441Z,25.9
2018-04-28T17:10:33.775Z,25.8
2018-04-28T17:15:08.355Z,26.4
2018-04-28T17:20:23.144Z,26.9
2018-04-28T17:25:10.172Z,25.9
2018-04-28T17:30:10.242Z,26.6
2018-04-28T17:35:38.741Z,26.7
2018-04-28T17:40:07.856Z,26.1
2018-04-28T17:45:03.377Z,26.1
2018-04-28T17:50:02.871Z,27.3
2018-04-28T18:00:12.849Z,28.4
2018-04-28T18:05:05.989Z,28.7
2018-04-28T18:10:13.074Z,28.7
2018-04-28T18:15:21.205Z,30.1
2018-04-28T18:20:07.865Z,33
2018-04-28T18:25:08.381Z,33.1
2018-04-28T18:30:03.288Z,33.1
2018-04-28T18:35:07.849Z,33.3
2018-04-28T18:40:07.867Z,33.5
2018-04-28T18:45:10.838Z,31.3
2018-04-28T18:50:08.499Z,31.6
2018-04-28T18:55:18.074Z,33.4
2018-04-28T19:00:16.171Z,32.7
2018-04-28T19:05:15.679Z,31.9
2018-04-28T19:10:02.777Z,31.9
2018-04-28T19:15:08.270Z,36.6
2018-04-28T19:20:23.149Z,39.1
2018-04-28T19:25:05.449Z,41.1
2018-04-28T19:30:05.444Z,42.1
2018-04-28T19:35:15.990Z,42.4
2018-04-28T19:40:33.277Z,42.9
2018-04-28T19:45:02.792Z,42.9
2018-04-28T19:50:21.140Z,43.8
2018-04-28T19:55:02.888Z,44
2018-04-28T20:00:28.825Z,44.7
2018-04-28T20:05:03.373Z,44.7
2018-04-28T20:10:03.460Z,45.2
2018-04-28T20:15:25.603Z,32.5
2018-04-28T20:20:05.683Z,46.5
2018-04-28T20:25:30.637Z,46.8
2018-04-28T20:30:03.210Z,46.8
2018-04-28T20:35:03.023Z,46.8
2018-04-28T20:40:05.582Z,47.8
2018-04-28T20:45:18.647Z,49.3
2018-04-28T20:50:08.157Z,49.9
2018-04-28T20:55:07.774Z,51.2
2018-04-28T21:00:25.998Z,52.7
2018-04-28T21:05:08.502Z,52.7
2018-04-28T21:10:13.540Z,54
2018-04-28T21:15:02.960Z,54
2018-04-28T21:20:08.536Z,53.6
2018-04-28T21:25:05.533Z,53.6
2018-04-28T21:35:08.523Z,54.2
2018-04-28T21:40:10.999Z,54.6
2018-04-28T21:45:05.405Z,55.3
2018-04-28T21:50:10.640Z,55
2018-04-28T21:55:18.701Z,55.1
2018-04-28T22:00:23.506Z,56.8
2018-04-28T22:05:02.745Z,56.8
2018-04-28T22:10:33.080Z,58.1
2018-04-28T22:15:30.411Z,58.9
2018-04-28T22:20:10.478Z,59
2018-04-28T22:25:05.971Z,59.7
2018-04-28T22:30:11.116Z,61
2018-04-28T22:40:15.581Z,60.2
2018-04-28T22:45:03.388Z,60.2
2018-04-28T22:50:35.700Z,61.9
2018-04-28T22:55:31.097Z,63.3
2018-04-28T23:00:06.094Z,63.9
2018-04-28T23:05:05.551Z,64.4
2018-04-28T23:10:08.557Z,64.6
2018-04-28T23:15:13.065Z,65.2
2018-04-28T23:20:05.141Z,65.7
2018-04-28T23:25:08.186Z,66.2
2018-04-28T23:30:05.177Z,67.1
2018-04-28T23:35:03.137Z,67.1
2018-04-28T23:40:23.293Z,68.1
2018-04-28T23:50:25.601Z,69
2018-04-28T23:55:23.417Z,68.9
